Time;durP1;ratioP1;P1;durP2;ratioP2;P2;SDS_P1;SDS_P2;PMS_P1;PMS_P2;Temp;Humidity;BMP_temperature;BMP_pressure;BME280_temperature;BME280_humidity;BME280_pressure;Samples;Min_cycle;Max_cycle;Signal;HPM_P1;HPM_P2
2021/06/28 00:00:13;;;;;;;6.53;4.20;;;;;;;22.27;57.24;100219.63;5094457;28;20044;-72
2021/06/28 00:02:43;;;;;;;5.97;4.45;;;;;;;22.13;58.15;100221.13;5094691;28;20048;-73
2021/06/28 00:05:14;;;;;;;5.90;4.32;;;;;;;22.00;58.61;100220.72;5094154;28;20105;-72
2021/06/28 00:07:44;;;;;;;5.45;4.15;;;;;;;21.99;58.64;100222.59;5094875;28;20040;-72
2021/06/28 00:10:15;;;;;;;7.97;4.63;;;;;;;21.99;58.58;100213.59;5094324;28;20080;-72
2021/06/28 00:12:44;;;;;;;6.85;4.55;;;;;;;21.97;58.89;100226.50;5094503;28;20111;-71
2021/06/28 00:15:16;;;;;;;8.63;4.55;;;;;;;21.97;59.05;100227.34;5094190;28;20036;-72
2021/06/28 00:17:46;;;;;;;6.43;4.38;;;;;;;22.01;58.79;100211.59;5094384;28;20036;-71
2021/06/28 00:20:16;;;;;;;6.22;4.93;;;;;;;22.10;58.71;100209.75;5094195;28;20039;-74
2021/06/28 00:22:45;;;;;;;5.72;4.30;;;;;;;22.15;58.59;100213.66;5076313;28;20076;-74
2021/06/28 00:25:17;;;;;;;6.95;4.60;;;;;;;22.04;58.76;100210.41;5075966;28;20446;-74
2021/06/28 00:27:49;;;;;;;6.60;4.53;;;;;;;21.96;59.03;100205.78;5094354;28;20094;-74
2021/06/28 00:30:29;;;;;;;6.53;4.43;;;;;;;21.89;59.52;100215.59;5094304;28;20097;-74
2021/06/28 00:33:00;;;;;;;5.60;4.35;;;;;;;21.96;59.03;100213.94;5093843;28;20048;-74
2021/06/28 00:35:28;;;;;;;7.07;5.00;;;;;;;21.84;59.78;100209.84;5094320;28;20044;-73
2021/06/28 00:37:56;;;;;;;6.72;4.50;;;;;;;21.88;59.63;100217.47;5093726;28;20040;-74
2021/06/28 00:40:24;;;;;;;6.68;4.60;;;;;;;21.68;60.13;100216.91;5093947;28;20398;-74
2021/06/28 00:42:53;;;;;;;7.18;4.65;;;;;;;21.57;60.52;100217.22;5093518;28;20040;-74
2021/06/28 00:45:23;;;;;;;5.80;4.55;;;;;;;21.62;60.39;100212.16;5093968;28;20044;-73
2021/06/28 00:47:53;;;;;;;6.47;4.50;;;;;;;21.61;60.51;100221.28;5093768;28;20036;-78
2021/06/28 00:50:26;;;;;;;6.90;4.45;;;;;;;21.79;59.86;100218.47;5093736;28;20552;-73
2021/06/28 00:53:01;;;;;;;8.20;5.30;;;;;;;21.56;60.83;100215.53;5093816;28;20036;-74
2021/06/28 00:55:29;;;;;;;6.32;4.35;;;;;;;21.46;61.09;100222.94;5093916;28;20051;-72
2021/06/28 00:57:58;;;;;;;5.70;4.32;;;;;;;21.41;61.55;100217.16;5093297;28;20097;-72
2021/06/28 01:00:26;;;;;;;7.00;4.50;;;;;;;21.41;61.37;100214.44;5093400;28;20036;-72
2021/06/28 01:02:56;;;;;;;6.03;4.30;;;;;;;21.39;61.95;100221.88;5075057;28;20138;-73
2021/06/28 01:05:30;;;;;;;5.88;4.50;;;;;;;21.51;61.10;100220.56;5075076;28;20101;-72
2021/06/28 01:07:58;;;;;;;7.47;4.45;;;;;;;21.53;61.06;100224.00;5093371;28;20086;-73
2021/06/28 01:10:27;;;;;;;6.07;4.40;;;;;;;21.39;61.83;100220.03;5093205;28;20101;-73
2021/06/28 01:12:56;;;;;;;7.07;4.53;;;;;;;21.40;61.48;100210.03;5093039;28;20046;-75
2021/06/28 01:15:26;;;;;;;6.35;4.68;;;;;;;21.41;61.86;100214.44;5093303;28;20495;-74
2021/06/28 01:17:54;;;;;;;7.60;4.68;;;;;;;21.18;62.77;100207.84;5092908;28;20048;-77
2021/06/28 01:20:26;;;;;;;6.68;4.53;;;;;;;21.27;62.71;100206.91;5093319;28;20072;-74
2021/06/28 01:22:56;;;;;;;7.47;4.60;;;;;;;21.04;63.02;100207.44;5092944;28;20044;-77
2021/06/28 01:25:28;;;;;;;6.80;4.78;;;;;;;21.07;63.06;100215.25;5093101;28;20395;-74
2021/06/28 01:27:57;;;;;;;7.87;5.03;;;;;;;21.09;63.24;100204.25;5092947;28;20040;-75
2021/06/28 01:30:29;;;;;;;6.57;4.50;;;;;;;21.15;63.02;100209.88;5093016;28;20043;-74
2021/06/28 01:32:58;;;;;;;6.03;4.43;;;;;;;21.00;63.84;100199.78;5092962;28;20040;-74
2021/06/28 01:35:26;;;;;;;7.10;4.88;;;;;;;21.01;63.53;100202.34;5092945;28;20074;-73
2021/06/28 01:37:55;;;;;;;7.50;4.93;;;;;;;20.97;64.22;100200.97;5092681;28;20048;-76
2021/06/28 01:40:25;;;;;;;8.13;4.63;;;;;;;20.86;64.10;100204.78;5092942;28;20371;-73
2021/06/28 01:42:56;;;;;;;8.18;5.35;;;;;;;20.93;64.19;100215.84;5092746;28;20391;-74
2021/06/28 01:45:26;;;;;;;;;;;;;;;20.96;64.05;100212.81;5093326;28;20376;-74
2021/06/28 01:47:57;;;;;;;9.40;5.00;;;;;;;20.88;64.74;100211.91;5093051;28;19927;-71
2021/06/28 01:50:29;;;;;;;9.60;4.50;;;;;;;20.79;65.03;100209.16;5093173;28;20056;-74
2021/06/28 01:52:58;;;;;;;8.20;4.75;;;;;;;20.91;64.85;100215.16;5092611;28;20072;-77
2021/06/28 01:55:30;;;;;;;6.80;4.45;;;;;;;21.01;64.21;100205.03;5092845;28;20044;-76
2021/06/28 01:58:00;;;;;;;6.93;4.63;;;;;;;20.87;64.74;100202.94;5092789;28;20522;-77
2021/06/28 02:00:32;;;;;;;7.97;5.03;;;;;;;20.84;65.29;100216.78;5093066;28;20044;-76
2021/06/28 02:03:05;;;;;;;9.10;4.95;;;;;;;20.83;65.49;100221.34;5092609;28;20071;-76
2021/06/28 02:05:36;;;;;;;9.13;5.10;;;;;;;20.77;65.51;100221.16;5092773;28;20036;-76
2021/06/28 02:08:07;;;;;;;6.87;4.63;;;;;;;20.88;65.32;100217.34;5092497;28;20064;-76
2021/06/28 02:10:39;;;;;;;11.10;5.50;;;;;;;20.78;65.57;100228.28;5092487;28;20767;-76
2021/06/28 02:13:09;;;;;;;9.48;4.72;;;;;;;20.70;66.02;100222.81;5095432;28;20405;-76
2021/06/28 02:15:38;;;;;;;7.32;4.88;;;;;;;20.63;66.56;100222.56;5096967;28;20492;-76
2021/06/28 02:18:08;;;;;;;7.15;5.15;;;;;;;20.81;65.81;100222.53;5096483;28;20036;-76
2021/06/28 02:20:36;;;;;;;9.55;5.32;;;;;;;20.66;66.16;100229.56;5096573;28;20490;-76
2021/06/28 02:23:22;;;;;;;8.00;5.53;;;;;;;20.57;66.64;100232.19;5096207;28;20043;-76
2021/06/28 02:25:56;;;;;;;7.55;5.15;;;;;;;20.67;66.52;100233.97;5096717;28;20043;-72
2021/06/28 02:28:24;;;;;;;;;;;;;;;20.54;66.79;100232.50;5096980;28;20067;-72
2021/06/28 02:30:55;;;;;;;7.80;5.03;;;;;;;20.68;66.51;100232.94;5096668;28;19919;-72
2021/06/28 02:33:23;;;;;;;5.53;4.50;;;;;;;20.65;66.86;100235.97;5096409;28;20048;-72
2021/06/28 02:35:52;;;;;;;7.80;5.22;;;;;;;20.54;67.31;100226.22;5096471;28;20036;-72
2021/06/28 02:38:21;;;;;;;7.75;4.93;;;;;;;20.30;68.08;100234.97;5095931;28;20040;-71
2021/06/28 02:40:53;;;;;;;9.38;5.20;;;;;;;20.32;68.41;100232.94;5096383;28;20123;-73
2021/06/28 02:43:23;;;;;;;6.88;4.97;;;;;;;20.29;68.53;100239.53;5095871;28;20097;-72
2021/06/28 02:45:51;;;;;;;8.02;5.22;;;;;;;20.33;68.66;100229.22;5096247;28;20051;-72
2021/06/28 02:48:20;;;;;;;11.23;5.50;;;;;;;20.36;68.32;100228.06;5095856;28;20050;-73
2021/06/28 02:50:49;;;;;;;7.47;5.25;;;;;;;20.39;68.76;100230.47;5096127;28;20454;-72
2021/06/28 02:53:18;;;;;;;8.07;5.18;;;;;;;20.58;67.55;100228.47;5095672;28;20402;-73
2021/06/28 02:55:47;;;;;;;7.35;5.05;;;;;;;20.62;67.31;100222.72;5095886;28;20126;-71
2021/06/28 02:58:19;;;;;;;8.40;5.43;;;;;;;20.49;67.92;100232.13;5095779;28;20048;-73
2021/06/28 03:00:49;;;;;;;7.47;5.05;;;;;;;20.52;67.75;100231.81;5096125;28;20043;-74
2021/06/28 03:03:18;;;;;;;8.23;5.53;;;;;;;20.49;67.80;100229.41;5095690;28;20060;-71
2021/06/28 03:05:47;;;;;;;8.10;5.00;;;;;;;20.57;67.67;100224.06;5095733;28;20040;-72
2021/06/28 03:08:17;;;;;;;7.88;4.80;;;;;;;20.64;67.75;100226.13;5095520;28;20040;-77
2021/06/28 03:10:46;;;;;;;8.70;5.07;;;;;;;20.28;68.97;100223.44;5095963;28;20449;-77
2021/06/28 03:13:14;;;;;;;13.18;5.20;;;;;;;20.26;69.55;100228.13;5095461;28;20044;-76
2021/06/28 03:15:44;;;;;;;8.02;5.10;;;;;;;20.28;69.18;100229.72;5095577;28;20110;-77
2021/06/28 03:18:12;;;;;;;8.38;5.35;;;;;;;20.54;68.26;100232.50;5095274;28;20063;-75
2021/06/28 03:20:41;;;;;;;7.15;5.00;;;;;;;20.51;68.31;100235.53;5095482;28;20483;-71
2021/06/28 03:23:09;;;;;;;9.38;5.35;;;;;;;20.64;67.74;100234.25;5094633;28;20075;-71
2021/06/28 03:25:37;;;;;;;7.65;4.75;;;;;;;20.69;67.80;100226.53;5095594;28;20040;-72
2021/06/28 03:28:06;;;;;;;8.20;5.28;;;;;;;20.79;67.08;100236.25;5095016;28;20427;-70
2021/06/28 03:30:35;;;;;;;9.20;5.00;;;;;;;20.97;66.71;100227.22;5095289;28;20559;-70
2021/06/28 03:33:05;;;;;;;8.13;4.97;;;;;;;21.07;66.55;100233.38;5094922;28;20078;-73
2021/06/28 03:35:36;;;;;;;7.55;4.63;;;;;;;21.09;66.26;100232.22;5095477;28;20044;-70
2021/06/28 03:38:05;;;;;;;7.22;4.65;;;;;;;21.71;63.97;100230.19;5094925;28;20460;-72
2021/06/28 03:40:34;;;;;;;8.27;4.82;;;;;;;22.24;62.14;100222.69;5094931;28;20066;-72
2021/06/28 03:43:05;;;;;;;7.80;4.55;;;;;;;23.06;58.65;100221.63;5094958;28;20040;-77
2021/06/28 03:45:36;;;;;;;7.15;4.90;;;;;;;23.49;57.48;100230.34;5095039;28;20105;-72
2021/06/28 03:48:08;;;;;;;9.30;5.13;;;;;;;23.98;56.07;100236.44;5094458;28;20048;-72
2021/06/28 03:50:40;;;;;;;11.13;4.80;;;;;;;24.53;54.32;100238.13;5095157;28;20072;-71
2021/06/28 03:53:13;;;;;;;7.72;4.30;;;;;;;25.06;52.46;100230.00;5094655;28;20048;-72
2021/06/28 03:55:41;;;;;;;6.55;4.38;;;;;;;25.15;52.54;100236.22;5094828;28;20123;-71
2021/06/28 03:58:09;;;;;;;7.00;4.70;;;;;;;25.62;50.97;100233.94;5094662;28;20044;-72
2021/06/28 04:00:38;;;;;;;6.80;4.65;;;;;;;26.14;49.59;100232.91;5094662;28;20044;-71
2021/06/28 04:03:09;;;;;;;8.25;4.60;;;;;;;26.21;49.11;100231.09;5094664;28;20036;-69
2021/06/28 04:05:38;;;;;;;8.43;4.32;;;;;;;26.27;49.09;100234.13;5094613;28;20040;-70
2021/06/28 04:08:07;;;;;;;6.28;4.15;;;;;;;25.87;49.84;100239.13;5094253;28;20036;-69
2021/06/28 04:10:36;;;;;;;7.53;4.57;;;;;;;26.78;47.80;100238.41;5094376;28;20048;-70
2021/06/28 04:13:04;;;;;;;6.10;3.85;;;;;;;27.16;46.60;100234.50;5094166;28;20036;-77
2021/06/28 04:15:32;;;;;;;7.40;4.70;;;;;;;27.35;45.66;100242.00;5094263;28;20044;-72
2021/06/28 04:18:01;;;;;;;6.68;4.43;;;;;;;27.56;45.67;100241.91;5094232;28;20048;-71
2021/06/28 04:20:31;;;;;;;8.75;4.60;;;;;;;27.65;45.04;100239.84;5094578;28;20040;-71
2021/06/28 04:23:00;;;;;;;8.75;4.50;;;;;;;27.85;44.95;100235.31;5094328;28;20495;-71
2021/06/28 04:25:28;;;;;;;6.93;4.63;;;;;;;28.54;43.34;100233.41;5093822;28;20040;-74
2021/06/28 04:27:56;;;;;;;7.90;4.20;;;;;;;28.60;42.69;100238.06;5094041;28;20097;-73
2021/06/28 04:30:25;;;;;;;9.45;4.53;;;;;;;28.78;42.38;100230.06;5093892;28;20044;-74
2021/06/28 04:32:53;;;;;;;8.55;4.43;;;;;;;29.49;40.83;100238.44;5094007;28;20051;-73
2021/06/28 04:35:23;;;;;;;8.23;4.35;;;;;;;29.50;40.76;100240.13;5093089;28;20063;-74
2021/06/28 04:37:54;;;;;;;6.57;4.20;;;;;;;29.88;39.64;100237.47;5093973;28;20570;-74
2021/06/28 04:40:26;;;;;;;6.57;4.10;;;;;;;29.79;40.36;100240.66;5093879;28;20128;-72
2021/06/28 04:42:54;;;;;;;9.48;4.05;;;;;;;30.81;37.83;100242.44;5094282;28;20036;-74
2021/06/28 04:45:24;;;;;;;5.45;4.25;;;;;;;29.90;39.73;100246.31;5093520;28;20521;-72
2021/06/28 04:47:53;;;;;;;7.18;4.30;;;;;;;29.43;40.47;100244.75;5093864;28;20047;-72
2021/06/28 04:50:23;;;;;;;7.38;4.53;;;;;;;30.01;40.03;100247.53;5093337;28;20169;-73
2021/06/28 04:52:55;;;;;;;7.18;4.85;;;;;;;29.91;39.12;100244.41;5093946;28;20036;-72
2021/06/28 04:55:28;;;;;;;8.57;4.82;;;;;;;30.37;38.58;100246.94;5093190;28;20036;-70
2021/06/28 04:57:58;;;;;;;8.27;4.60;;;;;;;31.02;37.38;100242.03;5093615;28;20032;-74
2021/06/28 05:00:27;;;;;;;7.82;4.78;;;;;;;30.70;37.95;100254.19;5093192;28;20385;-73
2021/06/28 05:02:55;;;;;;;8.70;4.63;;;;;;;31.09;37.09;100250.25;5093472;28;20051;-72
2021/06/28 05:05:24;;;;;;;5.43;4.15;;;;;;;31.36;36.41;100244.47;5092922;28;20072;-74
2021/06/28 05:07:56;;;;;;;7.43;4.18;;;;;;;31.88;35.53;100252.16;5093263;28;20554;-74
2021/06/28 05:10:24;;;;;;;7.40;4.50;;;;;;;31.61;35.61;100254.38;5093024;28;20056;-69
2021/06/28 05:12:52;;;;;;;10.88;4.43;;;;;;;30.93;36.68;100257.16;5093210;28;20127;-77
2021/06/28 05:15:21;;;;;;;7.78;4.45;;;;;;;31.14;36.65;100253.13;5092872;28;20048;-76
2021/06/28 05:17:50;;;;;;;10.20;5.07;;;;;;;31.06;36.67;100245.16;5093372;28;20546;-72
2021/06/28 05:20:18;;;;;;;8.07;4.35;;;;;;;30.94;36.59;100235.97;5093111;28;20062;-77
2021/06/28 05:22:46;;;;;;;8.63;4.10;;;;;;;31.21;35.79;100242.94;5093033;28;20051;-76
2021/06/28 05:25:16;;;;;;;7.22;4.65;;;;;;;31.55;35.57;100237.91;5092732;28;20046;-76
2021/06/28 05:27:46;;;;;;;7.25;4.30;;;;;;;31.82;34.78;100242.06;5093174;28;20462;-77
2021/06/28 05:30:15;;;;;;;8.75;4.38;;;;;;;31.94;34.96;100239.34;5092716;28;20036;-76
2021/06/28 05:32:44;;;;;;;7.65;4.10;;;;;;;31.78;35.21;100240.84;5093022;28;20040;-74
2021/06/28 05:35:15;;;;;;;8.55;4.63;;;;;;;31.75;35.04;100244.06;5092910;28;20492;-74
2021/06/28 05:37:43;;;;;;;7.00;4.35;;;;;;;31.90;34.97;100247.25;5093306;28;20036;-74
2021/06/28 05:40:12;;;;;;;5.40;4.20;;;;;;;32.59;34.01;100249.69;5092839;28;20113;-75
2021/06/28 05:42:44;;;;;;;6.07;4.15;;;;;;;32.51;33.29;100252.78;5092851;28;20554;-75
2021/06/28 05:45:13;;;;;;;8.40;4.00;;;;;;;33.47;31.40;100246.91;5092641;28;20060;-77
2021/06/28 05:47:45;;;;;;;7.07;4.15;;;;;;;33.66;31.52;100249.53;5092749;28;20047;-73
2021/06/28 05:50:15;;;;;;;7.30;4.65;;;;;;;33.28;31.87;100260.00;5074462;28;20486;-77
2021/06/28 05:52:43;;;;;;;7.78;4.47;;;;;;;33.17;32.29;100252.56;5092996;28;20068;-76
2021/06/28 05:55:13;;;;;;;7.78;4.50;;;;;;;33.52;31.65;100255.34;5092456;28;20076;-78
2021/06/28 05:57:46;;;;;;;7.07;4.15;;;;;;;33.62;30.72;100262.19;5108078;28;20060;-79
2021/06/28 06:00:15;;;;;;;8.25;4.38;;;;;;;34.26;30.73;100255.53;5102032;28;20050;-77
2021/06/28 06:02:44;;;;;;;7.00;4.28;;;;;;;34.89;29.25;100264.72;5092996;28;20040;-76
2021/06/28 06:05:13;;;;;;;6.68;4.28;;;;;;;33.92;30.34;100262.84;5092646;28;20111;-72
2021/06/28 06:07:42;;;;;;;10.43;4.60;;;;;;;33.99;30.55;100271.88;5092739;28;20048;-77
2021/06/28 06:10:12;;;;;;;9.65;4.32;;;;;;;34.90;29.45;100277.47;5092881;28;20052;-73
2021/06/28 06:12:42;;;;;;;8.00;4.30;;;;;;;33.84;31.42;100266.81;5092887;28;20042;-72
2021/06/28 06:15:15;;;;;;;;;;;;;;;34.18;30.90;100269.75;5093096;28;20040;-72
2021/06/28 06:17:44;;;;;;;8.98;4.97;;;;;;;34.50;30.52;100267.34;5074838;28;19941;-72
2021/06/28 06:20:13;;;;;;;11.10;4.75;;;;;;;34.35;30.48;100259.53;5092376;28;20113;-74
2021/06/28 06:22:42;;;;;;;8.48;4.40;;;;;;;34.53;30.15;100271.53;5092744;28;20067;-72
2021/06/28 06:25:11;;;;;;;6.80;4.25;;;;;;;34.41;29.84;100279.91;5092668;28;20036;-74
2021/06/28 06:27:40;;;;;;;5.63;3.88;;;;;;;34.69;29.72;100277.09;5092653;28;20040;-72
2021/06/28 06:30:11;;;;;;;8.27;4.50;;;;;;;34.04;30.97;100283.03;5092543;28;20072;-72
2021/06/28 06:32:50;;;;;;;7.00;4.13;;;;;;;33.86;31.08;100272.09;5092652;28;20043;-73
2021/06/28 06:35:21;;;;;;;9.40;4.35;;;;;;;34.23;31.68;100278.13;5092274;28;20040;-74
2021/06/28 06:37:55;;;;;;;7.82;4.45;;;;;;;34.93;29.51;100277.81;5092651;28;20078;-76
2021/06/28 06:40:26;;;;;;;6.57;3.95;;;;;;;33.96;30.45;100277.88;5092376;28;20044;-77
2021/06/28 06:42:56;;;;;;;7.05;4.00;;;;;;;34.53;30.62;100272.38;5092352;28;20044;-74
2021/06/28 06:45:25;;;;;;;6.50;3.80;;;;;;;34.33;30.21;100264.50;5092196;28;20055;-77
2021/06/28 06:47:57;;;;;;;7.95;4.25;;;;;;;35.13;29.35;100277.31;5092221;28;20037;-75
2021/06/28 06:50:28;;;;;;;5.88;3.90;;;;;;;35.36;29.08;100273.50;5092149;28;20502;-75
2021/06/28 06:52:57;;;;;;;8.88;4.40;;;;;;;35.60;27.69;100270.53;5091914;28;20054;-75
2021/06/28 06:55:25;;;;;;;7.18;4.50;;;;;;;35.15;28.92;100272.34;5092012;28;20054;-75
2021/06/28 06:57:54;;;;;;;6.70;3.80;;;;;;;34.25;30.12;100272.34;5092773;28;20043;-74
2021/06/28 07:00:23;;;;;;;6.72;3.78;;;;;;;33.72;31.29;100276.22;5095472;28;20092;-75
2021/06/28 07:02:53;;;;;;;8.25;3.95;;;;;;;33.49;31.97;100272.44;5095988;28;20044;-74
2021/06/28 07:05:23;;;;;;;6.22;4.38;;;;;;;33.21;32.04;100277.81;5095494;28;20125;-74
2021/06/28 07:07:51;;;;;;;9.07;4.45;;;;;;;32.59;32.53;100280.91;5077328;28;20411;-76
2021/06/28 07:10:20;;;;;;;5.68;3.65;;;;;;;32.41;33.39;100281.81;5095150;28;20490;-75
2021/06/28 07:12:48;;;;;;;9.85;4.53;;;;;;;32.09;34.04;100285.84;5095880;28;20056;-75
2021/06/28 07:15:18;;;;;;;7.63;4.40;;;;;;;32.08;34.81;100284.16;5095265;28;20110;-77
2021/06/28 07:17:47;;;;;;;8.55;4.50;;;;;;;31.94;34.25;100274.38;5095640;28;20044;-74
2021/06/28 07:20:18;;;;;;;8.15;4.10;;;;;;;31.78;34.52;100279.44;5095230;28;20089;-75
2021/06/28 07:23:08;;;;;;;7.18;4.13;;;;;;;31.41;35.56;100274.97;5095821;28;20105;-74
2021/06/28 07:25:36;;;;;;;10.00;4.15;;;;;;;31.10;35.98;100279.47;5095351;28;20078;-74
2021/06/28 07:28:06;;;;;;;11.57;4.35;;;;;;;31.52;35.40;100276.94;5095622;28;20127;-74
2021/06/28 07:30:35;;;;;;;7.15;4.22;;;;;;;31.53;35.30;100278.63;5095435;28;20496;-74
2021/06/28 07:33:04;;;;;;;7.60;4.38;;;;;;;31.37;35.90;100282.00;5095315;28;20032;-74
2021/06/28 07:35:32;;;;;;;5.32;3.95;;;;;;;31.46;35.69;100278.72;5094886;28;20044;-74
2021/06/28 07:38:02;;;;;;;9.98;4.28;;;;;;;31.33;35.76;100287.94;5095301;28;20143;-74
2021/06/28 07:40:31;;;;;;;8.23;4.28;;;;;;;31.49;35.20;100282.94;5094862;28;20044;-74
2021/06/28 07:43:00;;;;;;;6.72;4.15;;;;;;;31.58;34.54;100276.88;5095232;28;20044;-74
2021/06/28 07:45:28;;;;;;;6.65;3.95;;;;;;;31.66;34.89;100283.19;5094639;28;20533;-74
2021/06/28 07:48:02;;;;;;;7.07;4.13;;;;;;;31.52;34.95;100277.78;5095073;28;20081;-74
2021/06/28 07:50:30;;;;;;;9.38;4.15;;;;;;;31.57;34.43;100282.63;5094783;28;20048;-74
2021/06/28 07:52:58;;;;;;;7.85;4.38;;;;;;;31.40;35.31;100273.28;5095115;28;20517;-74
2021/06/28 07:55:26;;;;;;;7.45;3.70;;;;;;;31.47;34.93;100274.06;5094695;28;20356;-73
2021/06/28 07:57:56;;;;;;;8.20;4.05;;;;;;;31.57;34.67;100266.09;5094751;28;20090;-74
2021/06/28 08:00:24;;;;;;;10.88;4.60;;;;;;;31.66;34.52;100263.88;5094747;28;20090;-74
2021/06/28 08:02:55;;;;;;;7.80;4.55;;;;;;;31.48;34.53;100270.22;5094960;28;20042;-74
2021/06/28 08:05:23;;;;;;;9.00;4.00;;;;;;;31.36;34.88;100277.53;5094769;28;20386;-74
2021/06/28 08:07:51;;;;;;;9.35;4.70;;;;;;;31.34;35.27;100273.09;5094653;28;20273;-74
2021/06/28 08:10:20;;;;;;;8.57;4.30;;;;;;;31.20;35.16;100271.56;5093457;28;20051;-75
2021/06/28 08:12:49;;;;;;;8.75;4.45;;;;;;;31.27;34.89;100275.09;5094505;28;20130;-74
2021/06/28 08:15:21;;;;;;;7.18;3.90;;;;;;;31.50;34.92;100279.09;5094370;28;20047;-75
2021/06/28 08:17:50;;;;;;;10.20;4.68;;;;;;;31.69;34.50;100275.28;5094469;28;20040;-74
2021/06/28 08:20:20;;;;;;;9.80;4.75;;;;;;;31.70;33.97;100271.44;5094411;28;20040;-74
2021/06/28 08:22:50;;;;;;;9.40;4.22;;;;;;;31.89;33.10;100278.66;5094398;28;20071;-74
2021/06/28 08:25:23;;;;;;;7.70;3.47;;;;;;;31.83;32.93;100268.56;5094842;28;20036;-74
2021/06/28 08:27:52;;;;;;;8.40;3.67;;;;;;;31.87;33.41;100274.47;5094731;28;20058;-74
2021/06/28 08:30:21;;;;;;;8.23;4.03;;;;;;;31.68;33.51;100272.75;5094085;28;20044;-76
2021/06/28 08:32:50;;;;;;;6.80;3.53;;;;;;;31.53;33.62;100270.38;5094402;28;20130;-75
2021/06/28 08:35:19;;;;;;;7.95;3.40;;;;;;;31.50;33.99;100268.91;5094392;28;20047;-73
2021/06/28 08:37:47;;;;;;;4.60;3.22;;;;;;;31.73;33.57;100273.72;5094101;28;20036;-76
2021/06/28 08:40:15;;;;;;;6.28;3.40;;;;;;;31.61;33.16;100270.91;5094008;28;20089;-75
2021/06/28 08:42:45;;;;;;;6.90;3.33;;;;;;;31.66;33.11;100272.16;5093935;28;20059;-76
2021/06/28 08:45:14;;;;;;;4.90;3.13;;;;;;;31.83;32.49;100271.31;5093965;28;20502;-76
2021/06/28 08:47:44;;;;;;;5.80;3.28;;;;;;;32.01;31.72;100275.13;5093713;28;20548;-75
2021/06/28 08:50:34;;;;;;;6.07;3.50;;;;;;;31.67;32.73;100262.81;5093825;28;20051;-76
2021/06/28 08:53:07;;;;;;;6.35;3.28;;;;;;;31.77;32.48;100266.75;5094075;28;20070;-75
2021/06/28 08:55:36;;;;;;;4.15;2.90;;;;;;;31.75;32.36;100271.66;5093608;28;20126;-75
2021/06/28 08:58:05;;;;;;;4.68;2.60;;;;;;;31.89;31.21;100273.16;5075393;28;20094;-75
2021/06/28 09:00:33;;;;;;;6.45;2.50;;;;;;;32.03;30.38;100270.22;5093270;28;20301;-75
2021/06/28 09:03:08;;;;;;;5.75;2.65;;;;;;;32.06;30.29;100275.28;5093501;28;20047;-75
2021/06/28 09:05:52;;;;;;;3.40;2.30;;;;;;;32.27;30.45;100272.03;5093398;28;20048;-75
2021/06/28 09:08:22;;;;;;;7.10;2.50;;;;;;;32.34;30.03;100274.72;5093518;28;20440;-75
2021/06/28 09:10:51;;;;;;;4.18;2.42;;;;;;;32.46;30.23;100270.91;5093326;28;20121;-75
2021/06/28 09:13:35;;;;;;;5.05;2.88;;;;;;;32.36;30.49;100267.88;5093430;28;20050;-75
2021/06/28 09:16:16;;;;;;;5.20;2.58;;;;;;;32.30;30.99;100268.81;5093453;28;20055;-75
2021/06/28 09:18:57;;;;;;;4.50;2.90;;;;;;;32.40;31.03;100263.56;5093262;28;20043;-75
2021/06/28 09:21:28;;;;;;;5.00;3.00;;;;;;;32.53;30.69;100267.22;5092775;28;20044;-75
2021/06/28 09:23:57;;;;;;;8.80;3.33;;;;;;;32.36;31.22;100267.88;5093520;28;20539;-75
2021/06/28 09:26:30;;;;;;;6.13;2.72;;;;;;;32.42;30.54;100258.66;5093198;28;20044;-75
2021/06/28 09:29:00;;;;;;;4.70;2.65;;;;;;;32.64;30.53;100269.19;5093274;28;20044;-75
2021/06/28 09:31:38;;;;;;;8.48;3.25;;;;;;;32.61;30.52;100269.63;5093171;28;20077;-75
2021/06/28 09:34:18;;;;;;;4.60;2.80;;;;;;;32.50;30.64;100262.16;5093291;28;20056;-75
2021/06/28 09:36:53;;;;;;;4.97;2.88;;;;;;;32.01;30.95;100266.84;5093138;28;20379;-75
2021/06/28 09:39:25;;;;;;;5.13;2.85;;;;;;;31.93;31.44;100256.97;5093105;28;20558;-75
2021/06/28 09:42:01;;;;;;;7.07;3.10;;;;;;;31.98;31.78;100265.41;5093244;28;20097;-75
2021/06/28 09:44:31;;;;;;;5.82;2.97;;;;;;;31.95;31.92;100260.38;5092854;28;20048;-75
2021/06/28 09:47:12;;;;;;;8.40;3.10;;;;;;;32.43;31.77;100262.28;5093188;28;20039;-75
2021/06/28 09:49:58;;;;;;;5.25;3.42;;;;;;;32.53;31.42;100247.91;5092818;28;20044;-75
2021/06/28 09:52:31;;;;;;;7.28;3.20;;;;;;;32.75;30.86;100254.53;5092725;28;20104;-75
2021/06/28 09:55:13;;;;;;;5.15;2.90;;;;;;;32.86;30.82;100251.00;5093437;28;20106;-75
2021/06/28 09:58:03;;;;;;;6.05;2.90;;;;;;;33.06;30.25;100250.66;5092696;28;20054;-75
2021/06/28 10:00:32;;;;;;;5.82;2.72;;;;;;;32.91;30.60;100241.97;5092687;28;20482;-75
2021/06/28 10:03:01;;;;;;;4.63;2.55;;;;;;;32.81;29.88;100248.06;5092795;28;20044;-75
2021/06/28 10:05:34;;;;;;;3.90;2.20;;;;;;;32.61;29.65;100244.78;5092622;28;20051;-75
2021/06/28 10:08:03;;;;;;;4.32;2.78;;;;;;;32.63;30.25;100240.72;5092842;28;20075;-75
2021/06/28 10:10:32;;;;;;;4.25;2.70;;;;;;;32.67;30.16;100250.22;5092424;28;20047;-75
2021/06/28 10:13:07;;;;;;;3.97;2.80;;;;;;;32.69;29.65;100233.41;5092890;28;20101;-75
2021/06/28 10:15:39;;;;;;;6.35;2.83;;;;;;;32.84;29.97;100239.34;5092417;28;20048;-75
2021/06/28 10:18:10;;;;;;;5.18;3.10;;;;;;;32.73;30.39;100238.22;5092849;28;20371;-75
2021/06/28 10:20:41;;;;;;;8.65;3.33;;;;;;;32.74;30.86;100236.31;5092289;28;20122;-75
2021/06/28 10:23:11;;;;;;;10.55;3.58;;;;;;;32.74;30.45;100241.81;5092785;28;20044;-75
2021/06/28 10:25:41;;;;;;;5.85;2.90;;;;;;;32.82;30.30;100233.19;5092310;28;20048;-75
2021/06/28 10:28:09;;;;;;;6.38;3.40;;;;;;;33.01;30.24;100229.28;5092816;28;20048;-75
2021/06/28 10:30:38;;;;;;;6.97;3.60;;;;;;;33.35;29.24;100237.78;5092244;28;20067;-75
2021/06/28 10:33:13;;;;;;;5.53;3.10;;;;;;;33.31;29.89;100229.13;5093568;28;20046;-75
2021/06/28 10:35:47;;;;;;;4.38;3.08;;;;;;;33.40;29.62;100235.19;5096517;28;20048;-75
2021/06/28 10:38:17;;;;;;;3.53;2.67;;;;;;;33.64;29.25;100219.38;5096339;28;20051;-75
2021/06/28 10:40:49;;;;;;;4.82;3.28;;;;;;;33.35;29.59;100223.97;5095805;28;20049;-75
2021/06/28 10:43:26;;;;;;;5.00;3.40;;;;;;;33.13;30.30;100232.03;5096340;28;20487;-75
2021/06/28 10:45:55;;;;;;;7.70;3.47;;;;;;;33.10;30.39;100228.88;5096315;28;20044;-75
2021/06/28 10:48:25;;;;;;;5.05;3.35;;;;;;;32.75;31.51;100227.78;5096298;28;20137;-75
2021/06/28 10:50:59;;;;;;;6.30;3.45;;;;;;;32.79;31.31;100222.59;5077924;28;20101;-75
2021/06/28 10:54:14;;;;;;;5.43;3.40;;;;;;;33.24;30.17;100224.81;5096125;28;20044;-75
2021/06/28 10:56:53;;;;;;;6.60;3.22;;;;;;;33.24;30.52;100220.13;5096028;28;20106;-75
2021/06/28 10:59:24;;;;;;;7.85;3.47;;;;;;;33.42;30.53;100221.09;5096122;28;20040;-75
2021/06/28 11:02:12;;;;;;;4.90;3.50;;;;;;;33.38;29.92;100217.97;5096035;28;20489;-75
2021/06/28 11:04:43;;;;;;;6.45;3.83;;;;;;;33.33;29.46;100217.84;5095679;28;20040;-75
2021/06/28 11:07:15;;;;;;;6.65;3.80;;;;;;;33.35;29.58;100210.13;5096036;28;20040;-75
2021/06/28 11:09:47;;;;;;;6.00;4.17;;;;;;;33.29;29.54;100205.56;5095825;28;20076;-75
2021/06/28 11:12:34;;;;;;;6.60;3.75;;;;;;;33.17;30.54;100207.50;5095891;28;20123;-75
2021/06/28 11:15:08;;;;;;;5.20;3.70;;;;;;;33.30;29.90;100202.59;5096069;28;20044;-75
2021/06/28 11:17:43;;;;;;;4.20;3.10;;;;;;;33.55;29.70;100194.00;5095394;28;20044;-75
2021/06/28 11:20:37;;;;;;;6.35;3.78;;;;;;;33.48;29.67;100195.22;5095646;28;20090;-75
2021/06/28 11:23:16;;;;;;;6.95;3.67;;;;;;;33.40;29.58;100195.63;5095975;28;20051;-75
2021/06/28 11:25:47;;;;;;;6.75;3.40;;;;;;;33.66;29.23;100189.53;5095282;28;20555;-75
2021/06/28 11:28:36;;;;;;;6.18;3.33;;;;;;;33.67;29.42;100187.59;5095387;28;20131;-75
2021/06/28 11:31:07;;;;;;;8.45;3.28;;;;;;;33.93;29.46;100184.31;5095888;28;20047;-75
2021/06/28 11:33:47;;;;;;;5.63;3.33;;;;;;;34.06;28.62;100188.69;5077004;28;20115;-75
2021/06/28 11:36:35;;;;;;;4.57;2.90;;;;;;;33.92;28.78;100182.63;5095425;28;20052;-75
2021/06/28 11:39:22;;;;;;;6.75;3.50;;;;;;;33.72;29.32;100193.25;5095358;28;20044;-75
2021/06/28 11:42:18;;;;;;;10.52;3.65;;;;;;;33.75;28.73;100187.22;5093641;28;20066;-75
2021/06/28 11:44:53;;;;;;;5.80;3.33;;;;;;;34.00;29.30;100184.16;5094796;28;20090;-75